sensor_id;sensor_type;location;lat;lon;timestamp;pressure;altitude;pressure_sealevel;temperature;humidity
22333;BME280;11334;36.986;-121.936;2022-07-06T00:02:17;100985.72;;;34.72;33.21
22333;BME280;11334;36.986;-121.936;2022-07-06T00:04:43;100993.72;;;34.69;33.23
22333;BME280;11334;36.986;-121.936;2022-07-06T00:07:09;100991.09;;;34.77;33.24
22333;BME280;11334;36.986;-121.936;2022-07-06T00:09:36;100993.31;;;34.88;33.45
22333;BME280;11334;36.986;-121.936;2022-07-06T00:12:02;100985.44;;;34.95;33.21
22333;BME280;11334;36.986;-121.936;2022-07-06T00:14:28;100985.84;;;35.02;32.95
22333;BME280;11334;36.986;-121.936;2022-07-06T00:16:55;100984.69;;;35.03;33.38
22333;BME280;11334;36.986;-121.936;2022-07-06T00:19:21;100970.91;;;35.03;32.75
22333;BME280;11334;36.986;-121.936;2022-07-06T00:21:47;100974.75;;;35.15;32.78
22333;BME280;11334;36.986;-121.936;2022-07-06T00:24:13;100977.25;;;35.17;32.59
22333;BME280;11334;36.986;-121.936;2022-07-06T00:26:39;100973.88;;;35.20;33.46
22333;BME280;11334;36.986;-121.936;2022-07-06T00:29:06;100968.03;;;35.21;32.85
22333;BME280;11334;36.986;-121.936;2022-07-06T00:31:32;100978.22;;;35.21;32.93
22333;BME280;11334;36.986;-121.936;2022-07-06T00:33:58;100977.47;;;34.94;32.92
22333;BME280;11334;36.986;-121.936;2022-07-06T00:36:24;100975.19;;;35.22;32.71
22333;BME280;11334;36.986;-121.936;2022-07-06T00:38:50;100979.66;;;35.32;32.78
22333;BME280;11334;36.986;-121.936;2022-07-06T00:41:17;100973.03;;;35.41;32.74
22333;BME280;11334;36.986;-121.936;2022-07-06T00:43:51;100963.97;;;35.40;32.89
22333;BME280;11334;36.986;-121.936;2022-07-06T00:46:26;100963.34;;;35.22;32.85
22333;BME280;11334;36.986;-121.936;2022-07-06T00:48:53;100962.13;;;35.36;32.58
22333;BME280;11334;36.986;-121.936;2022-07-06T00:51:20;100965.78;;;35.45;32.57
22333;BME280;11334;36.986;-121.936;2022-07-06T00:53:49;100967.22;;;35.42;32.52
22333;BME280;11334;36.986;-121.936;2022-07-06T00:56:15;100962.34;;;35.39;32.01
22333;BME280;11334;36.986;-121.936;2022-07-06T00:58:41;100963.44;;;35.38;32.02
22333;BME280;11334;36.986;-121.936;2022-07-06T01:01:08;100955.13;;;35.30;32.35
22333;BME280;11334;36.986;-121.936;2022-07-06T01:03:34;100960.13;;;35.28;32.40
22333;BME280;11334;36.986;-121.936;2022-07-06T01:06:01;100951.69;;;35.25;32.26
22333;BME280;11334;36.986;-121.936;2022-07-06T01:08:28;100964.31;;;35.26;32.63
22333;BME280;11334;36.986;-121.936;2022-07-06T01:10:55;100947.59;;;35.22;32.44
22333;BME280;11334;36.986;-121.936;2022-07-06T01:13:21;100952.19;;;35.27;31.84
22333;BME280;11334;36.986;-121.936;2022-07-06T01:15:47;100952.25;;;35.00;32.20
22333;BME280;11334;36.986;-121.936;2022-07-06T01:18:14;100949.75;;;35.12;32.58
22333;BME280;11334;36.986;-121.936;2022-07-06T01:20:40;100955.66;;;34.84;33.06
22333;BME280;11334;36.986;-121.936;2022-07-06T01:23:06;100952.50;;;34.64;33.12
22333;BME280;11334;36.986;-121.936;2022-07-06T01:25:33;100950.38;;;34.61;33.15
22333;BME280;11334;36.986;-121.936;2022-07-06T01:27:59;100957.44;;;34.27;33.81
22333;BME280;11334;36.986;-121.936;2022-07-06T01:30:26;100959.13;;;34.09;34.24
22333;BME280;11334;36.986;-121.936;2022-07-06T01:32:52;100951.06;;;34.00;34.52
22333;BME280;11334;36.986;-121.936;2022-07-06T01:35:18;100954.44;;;33.97;34.49
22333;BME280;11334;36.986;-121.936;2022-07-06T01:37:45;100951.53;;;33.75;34.69
22333;BME280;11334;36.986;-121.936;2022-07-06T01:40:12;100962.69;;;33.65;34.87
22333;BME280;11334;36.986;-121.936;2022-07-06T01:42:39;100956.94;;;33.48;35.17
22333;BME280;11334;36.986;-121.936;2022-07-06T01:45:06;100958.06;;;33.11;35.88
22333;BME280;11334;36.986;-121.936;2022-07-06T01:47:32;100965.41;;;32.79;35.97
22333;BME280;11334;36.986;-121.936;2022-07-06T01:50:00;100957.81;;;32.71;36.53
22333;BME280;11334;36.986;-121.936;2022-07-06T01:52:27;100960.13;;;32.64;35.99
22333;BME280;11334;36.986;-121.936;2022-07-06T01:54:55;100962.06;;;32.41;36.49
22333;BME280;11334;36.986;-121.936;2022-07-06T01:57:21;100963.91;;;31.99;37.36
22333;BME280;11334;36.986;-121.936;2022-07-06T01:59:47;100969.31;;;31.81;37.25
22333;BME280;11334;36.986;-121.936;2022-07-06T02:02:14;100971.03;;;31.39;38.02
22333;BME280;11334;36.986;-121.936;2022-07-06T02:04:41;100979.03;;;31.30;38.53
22333;BME280;11334;36.986;-121.936;2022-07-06T02:07:07;100972.50;;;31.26;38.20
22333;BME280;11334;36.986;-121.936;2022-07-06T02:09:33;100973.44;;;31.02;38.90
22333;BME280;11334;36.986;-121.936;2022-07-06T02:11:59;100975.19;;;30.84;39.52
22333;BME280;11334;36.986;-121.936;2022-07-06T02:14:25;100976.91;;;30.75;39.24
22333;BME280;11334;36.986;-121.936;2022-07-06T02:16:52;100974.44;;;30.68;39.97
22333;BME280;11334;36.986;-121.936;2022-07-06T02:19:18;100984.94;;;30.47;39.68
22333;BME280;11334;36.986;-121.936;2022-07-06T02:21:44;100982.56;;;30.21;40.45
22333;BME280;11334;36.986;-121.936;2022-07-06T02:24:10;100986.44;;;29.95;41.36
22333;BME280;11334;36.986;-121.936;2022-07-06T02:26:36;100994.69;;;29.75;41.29
22333;BME280;11334;36.986;-121.936;2022-07-06T02:29:02;100992.75;;;29.56;41.64
22333;BME280;11334;36.986;-121.936;2022-07-06T02:31:29;100988.06;;;29.17;42.20
22333;BME280;11334;36.986;-121.936;2022-07-06T02:33:55;100997.22;;;28.72;43.23
22333;BME280;11334;36.986;-121.936;2022-07-06T02:36:21;100990.94;;;28.21;44.51
22333;BME280;11334;36.986;-121.936;2022-07-06T02:38:48;100998.03;;;27.81;45.31
22333;BME280;11334;36.986;-121.936;2022-07-06T02:41:14;100999.28;;;27.68;45.36
22333;BME280;11334;36.986;-121.936;2022-07-06T02:43:40;100996.75;;;27.31;46.55
22333;BME280;11334;36.986;-121.936;2022-07-06T02:46:07;101002.16;;;27.00;47.16
22333;BME280;11334;36.986;-121.936;2022-07-06T02:48:33;101011.84;;;26.70;48.21
22333;BME280;11334;36.986;-121.936;2022-07-06T02:51:00;101005.22;;;26.40;48.75
22333;BME280;11334;36.986;-121.936;2022-07-06T02:53:26;101016.53;;;26.32;48.78
22333;BME280;11334;36.986;-121.936;2022-07-06T02:55:52;101014.84;;;25.94;50.18
22333;BME280;11334;36.986;-121.936;2022-07-06T02:58:18;101012.16;;;25.77;50.57
22333;BME280;11334;36.986;-121.936;2022-07-06T03:00:44;101009.84;;;25.70;50.87
22333;BME280;11334;36.986;-121.936;2022-07-06T03:03:11;101012.28;;;25.38;51.25
22333;BME280;11334;36.986;-121.936;2022-07-06T03:05:37;101001.75;;;25.26;52.19
22333;BME280;11334;36.986;-121.936;2022-07-06T03:08:03;101020.38;;;25.06;52.44
22333;BME280;11334;36.986;-121.936;2022-07-06T03:10:29;101015.38;;;24.87;52.61
22333;BME280;11334;36.986;-121.936;2022-07-06T03:12:56;101017.25;;;24.75;53.66
22333;BME280;11334;36.986;-121.936;2022-07-06T03:15:22;101016.56;;;24.68;53.80
22333;BME280;11334;36.986;-121.936;2022-07-06T03:17:48;101014.16;;;24.55;54.01
22333;BME280;11334;36.986;-121.936;2022-07-06T03:20:14;101011.47;;;24.44;54.55
22333;BME280;11334;36.986;-121.936;2022-07-06T03:22:41;101009.59;;;24.33;54.17
22333;BME280;11334;36.986;-121.936;2022-07-06T03:25:07;101017.50;;;24.23;54.66
22333;BME280;11334;36.986;-121.936;2022-07-06T03:27:35;101014.69;;;24.07;55.39
22333;BME280;11334;36.986;-121.936;2022-07-06T03:30:02;101016.44;;;24.02;55.65
22333;BME280;11334;36.986;-121.936;2022-07-06T03:32:29;101014.00;;;23.78;56.34
22333;BME280;11334;36.986;-121.936;2022-07-06T03:34:57;101009.38;;;23.67;56.57
22333;BME280;11334;36.986;-121.936;2022-07-06T03:37:23;101010.22;;;23.67;56.59
22333;BME280;11334;36.986;-121.936;2022-07-06T03:39:49;101012.75;;;23.51;56.91
22333;BME280;11334;36.986;-121.936;2022-07-06T03:42:16;101010.22;;;23.27;57.84
22333;BME280;11334;36.986;-121.936;2022-07-06T03:44:42;101002.47;;;23.30;57.83
22333;BME280;11334;36.986;-121.936;2022-07-06T03:47:08;101016.31;;;23.22;57.97
22333;BME280;11334;36.986;-121.936;2022-07-06T03:49:34;101016.78;;;23.19;58.55
22333;BME280;11334;36.986;-121.936;2022-07-06T03:52:00;101006.09;;;23.13;58.47
22333;BME280;11334;36.986;-121.936;2022-07-06T03:54:26;101009.47;;;23.09;58.39
22333;BME280;11334;36.986;-121.936;2022-07-06T03:56:53;101005.16;;;22.90;59.27
22333;BME280;11334;36.986;-121.936;2022-07-06T03:59:19;101004.66;;;22.82;59.64
22333;BME280;11334;36.986;-121.936;2022-07-06T04:01:45;101012.53;;;22.83;59.60
22333;BME280;11334;36.986;-121.936;2022-07-06T04:04:11;101012.34;;;22.78;59.66
22333;BME280;11334;36.986;-121.936;2022-07-06T04:06:37;101003.25;;;22.61;60.37
22333;BME280;11334;36.986;-121.936;2022-07-06T04:09:05;101004.69;;;22.64;60.29
22333;BME280;11334;36.986;-121.936;2022-07-06T04:11:31;101016.09;;;22.48;60.75
22333;BME280;11334;36.986;-121.936;2022-07-06T04:13:58;101014.38;;;22.53;60.95
22333;BME280;11334;36.986;-121.936;2022-07-06T04:16:24;101019.03;;;22.47;60.79
22333;BME280;11334;36.986;-121.936;2022-07-06T04:18:50;101030.34;;;22.37;61.55
22333;BME280;11334;36.986;-121.936;2022-07-06T04:21:16;101025.31;;;22.41;61.30
22333;BME280;11334;36.986;-121.936;2022-07-06T04:23:42;101025.56;;;22.21;61.50
22333;BME280;11334;36.986;-121.936;2022-07-06T04:26:08;101029.97;;;22.16;62.18
22333;BME280;11334;36.986;-121.936;2022-07-06T04:28:35;101035.31;;;22.22;61.97
22333;BME280;11334;36.986;-121.936;2022-07-06T04:31:01;101035.03;;;22.06;62.38
22333;BME280;11334;36.986;-121.936;2022-07-06T04:33:27;101043.97;;;22.07;62.27
22333;BME280;11334;36.986;-121.936;2022-07-06T04:35:53;101041.28;;;22.07;62.39
22333;BME280;11334;36.986;-121.936;2022-07-06T04:38:20;101046.09;;;21.98;62.59
22333;BME280;11334;36.986;-121.936;2022-07-06T04:40:46;101051.19;;;21.88;63.10
22333;BME280;11334;36.986;-121.936;2022-07-06T04:43:13;101056.75;;;21.93;63.04
22333;BME280;11334;36.986;-121.936;2022-07-06T04:45:39;101046.59;;;21.89;63.10
22333;BME280;11334;36.986;-121.936;2022-07-06T04:48:06;101059.69;;;21.92;63.09
22333;BME280;11334;36.986;-121.936;2022-07-06T04:50:34;101058.47;;;21.88;63.14
22333;BME280;11334;36.986;-121.936;2022-07-06T04:53:00;101057.03;;;21.86;63.31
22333;BME280;11334;36.986;-121.936;2022-07-06T04:55:26;101068.47;;;21.81;63.61
22333;BME280;11334;36.986;-121.936;2022-07-06T04:57:52;101071.59;;;21.85;63.65
22333;BME280;11334;36.986;-121.936;2022-07-06T05:00:18;101080.78;;;21.77;63.97
22333;BME280;11334;36.986;-121.936;2022-07-06T05:02:45;101078.47;;;21.81;63.71
22333;BME280;11334;36.986;-121.936;2022-07-06T05:05:11;101083.84;;;21.81;63.76
22333;BME280;11334;36.986;-121.936;2022-07-06T05:07:37;101088.19;;;21.82;63.88
22333;BME280;11334;36.986;-121.936;2022-07-06T05:10:11;101091.94;;;21.81;64.01
22333;BME280;11334;36.986;-121.936;2022-07-06T05:12:37;101100.94;;;21.75;64.20
22333;BME280;11334;36.986;-121.936;2022-07-06T05:15:05;101091.81;;;21.69;64.31
22333;BME280;11334;36.986;-121.936;2022-07-06T05:17:31;101101.88;;;21.62;64.74
22333;BME280;11334;36.986;-121.936;2022-07-06T05:19:57;101103.06;;;21.66;64.49
22333;BME280;11334;36.986;-121.936;2022-07-06T05:22:24;101103.06;;;21.66;64.60
22333;BME280;11334;36.986;-121.936;2022-07-06T05:24:51;101098.47;;;21.67;64.32
22333;BME280;11334;36.986;-121.936;2022-07-06T05:27:17;101100.03;;;21.56;64.97
22333;BME280;11334;36.986;-121.936;2022-07-06T05:29:43;101110.00;;;21.56;64.85
22333;BME280;11334;36.986;-121.936;2022-07-06T05:32:10;101105.47;;;21.50;65.22
22333;BME280;11334;36.986;-121.936;2022-07-06T05:34:36;101102.00;;;21.43;65.42
22333;BME280;11334;36.986;-121.936;2022-07-06T05:37:03;101112.34;;;21.46;65.33
22333;BME280;11334;36.986;-121.936;2022-07-06T05:39:30;101106.94;;;21.46;65.53
22333;BME280;11334;36.986;-121.936;2022-07-06T05:41:56;101107.31;;;21.50;65.35
22333;BME280;11334;36.986;-121.936;2022-07-06T05:44:22;101111.97;;;21.43;65.74
22333;BME280;11334;36.986;-121.936;2022-07-06T05:46:48;101110.03;;;21.50;65.51
22333;BME280;11334;36.986;-121.936;2022-07-06T05:49:14;101114.38;;;21.51;65.45
22333;BME280;11334;36.986;-121.936;2022-07-06T05:52:12;101108.00;;;21.45;65.71
22333;BME280;11334;36.986;-121.936;2022-07-06T05:54:39;101106.78;;;21.41;65.96
22333;BME280;11334;36.986;-121.936;2022-07-06T05:57:05;101118.81;;;21.39;66.23
22333;BME280;11334;36.986;-121.936;2022-07-06T05:59:31;101116.94;;;21.39;66.30
22333;BME280;11334;36.986;-121.936;2022-07-06T06:01:57;101109.25;;;21.43;66.12
22333;BME280;11334;36.986;-121.936;2022-07-06T06:04:23;101112.78;;;21.43;66.29
22333;BME280;11334;36.986;-121.936;2022-07-06T06:06:50;101120.44;;;21.46;66.11
22333;BME280;11334;36.986;-121.936;2022-07-06T06:09:16;101112.34;;;21.46;66.15
22333;BME280;11334;36.986;-121.936;2022-07-06T06:11:42;101120.22;;;21.48;66.05
22333;BME280;11334;36.986;-121.936;2022-07-06T06:14:08;101115.03;;;21.46;66.21
22333;BME280;11334;36.986;-121.936;2022-07-06T06:16:35;101110.03;;;21.50;65.92
22333;BME280;11334;36.986;-121.936;2022-07-06T06:19:01;101106.50;;;21.49;66.11
22333;BME280;11334;36.986;-121.936;2022-07-06T06:21:27;101111.06;;;21.49;66.07
22333;BME280;11334;36.986;-121.936;2022-07-06T06:23:53;101106.50;;;21.49;66.06
22333;BME280;11334;36.986;-121.936;2022-07-06T06:26:19;101101.75;;;21.45;66.29
22333;BME280;11334;36.986;-121.936;2022-07-06T06:28:46;101101.16;;;21.43;66.35
22333;BME280;11334;36.986;-121.936;2022-07-06T06:31:12;101106.50;;;21.49;66.04
22333;BME280;11334;36.986;-121.936;2022-07-06T06:33:38;101107.56;;;21.48;66.11
22333;BME280;11334;36.986;-121.936;2022-07-06T06:36:05;101097.59;;;21.49;66.52
22333;BME280;11334;36.986;-121.936;2022-07-06T06:38:31;101096.53;;;21.50;66.23
22333;BME280;11334;36.986;-121.936;2022-07-06T06:40:57;101095.28;;;21.52;66.17
22333;BME280;11334;36.986;-121.936;2022-07-06T06:43:24;101095.69;;;21.55;66.05
22333;BME280;11334;36.986;-121.936;2022-07-06T06:45:50;101092.00;;;21.50;66.13
22333;BME280;11334;36.986;-121.936;2022-07-06T06:48:16;101093.44;;;21.53;66.06
22333;BME280;11334;36.986;-121.936;2022-07-06T06:50:45;101092.81;;;21.51;66.15
22333;BME280;11334;36.986;-121.936;2022-07-06T06:53:11;101089.50;;;21.49;66.29
22333;BME280;11334;36.986;-121.936;2022-07-06T06:55:38;101086.44;;;21.45;66.20
22333;BME280;11334;36.986;-121.936;2022-07-06T06:58:04;101094.28;;;21.47;66.06
22333;BME280;11334;36.986;-121.936;2022-07-06T07:00:30;101081.25;;;21.44;66.19
22333;BME280;11334;36.986;-121.936;2022-07-06T07:02:56;101083.56;;;21.40;66.34
22333;BME280;11334;36.986;-121.936;2022-07-06T07:05:22;101082.13;;;21.38;66.39
22333;BME280;11334;36.986;-121.936;2022-07-06T07:07:49;101084.16;;;21.42;66.15
22333;BME280;11334;36.986;-121.936;2022-07-06T07:10:15;101088.34;;;21.38;66.56
22333;BME280;11334;36.986;-121.936;2022-07-06T07:12:47;101086.25;;;21.34;66.45
22333;BME280;11334;36.986;-121.936;2022-07-06T07:15:14;101097.69;;;21.36;66.35
22333;BME280;11334;36.986;-121.936;2022-07-06T07:17:41;101093.53;;;21.33;66.33
22333;BME280;11334;36.986;-121.936;2022-07-06T07:20:08;101093.97;;;21.30;66.39
22333;BME280;11334;36.986;-121.936;2022-07-06T07:22:35;101084.19;;;21.29;66.36
22333;BME280;11334;36.986;-121.936;2022-07-06T07:25:01;101084.63;;;21.33;66.28
22333;BME280;11334;36.986;-121.936;2022-07-06T07:27:27;101087.50;;;21.31;66.14
22333;BME280;11334;36.986;-121.936;2022-07-06T07:29:53;101086.47;;;21.32;66.38
22333;BME280;11334;36.986;-121.936;2022-07-06T07:32:20;101081.28;;;21.31;66.29
22333;BME280;11334;36.986;-121.936;2022-07-06T07:34:46;101081.91;;;21.33;66.47
22333;BME280;11334;36.986;-121.936;2022-07-06T07:37:12;101085.88;;;21.30;66.86
22333;BME280;11334;36.986;-121.936;2022-07-06T07:39:38;101082.34;;;21.30;66.60
22333;BME280;11334;36.986;-121.936;2022-07-06T07:42:05;101078.81;;;21.29;66.30
22333;BME280;11334;36.986;-121.936;2022-07-06T07:44:31;101080.06;;;21.27;66.90
22333;BME280;11334;36.986;-121.936;2022-07-06T07:46:57;101082.13;;;21.31;66.65
22333;BME280;11334;36.986;-121.936;2022-07-06T07:49:24;101077.59;;;21.25;66.76
22333;BME280;11334;36.986;-121.936;2022-07-06T07:51:50;101070.97;;;21.22;67.12
22333;BME280;11334;36.986;-121.936;2022-07-06T07:54:17;101078.63;;;21.24;66.78
22333;BME280;11334;36.986;-121.936;2022-07-06T07:56:43;101076.78;;;21.25;66.91
22333;BME280;11334;36.986;-121.936;2022-07-06T07:59:10;101072.66;;;21.23;66.97
22333;BME280;11334;36.986;-121.936;2022-07-06T08:01:36;101070.97;;;21.22;66.99
22333;BME280;11334;36.986;-121.936;2022-07-06T08:04:03;101078.88;;;21.23;67.10
22333;BME280;11334;36.986;-121.936;2022-07-06T08:06:29;101073.31;;;21.18;67.32
22333;BME280;11334;36.986;-121.936;2022-07-06T08:08:55;101076.59;;;21.20;67.24
22333;BME280;11334;36.986;-121.936;2022-07-06T08:11:22;101077.47;;;21.14;67.50
22333;BME280;11334;36.986;-121.936;2022-07-06T08:13:48;101071.03;;;21.15;67.32
22333;BME280;11334;36.986;-121.936;2022-07-06T08:16:14;101082.66;;;21.16;67.43
22333;BME280;11334;36.986;-121.936;2022-07-06T08:18:40;101088.03;;;21.16;67.59
22333;BME280;11334;36.986;-121.936;2022-07-06T08:21:07;101077.00;;;21.17;67.05
22333;BME280;11334;36.986;-121.936;2022-07-06T08:23:34;101071.84;;;21.16;67.33
22333;BME280;11334;36.986;-121.936;2022-07-06T08:26:02;101080.16;;;21.14;67.64
22333;BME280;11334;36.986;-121.936;2022-07-06T08:28:28;101079.53;;;21.12;67.52
22333;BME280;11334;36.986;-121.936;2022-07-06T08:30:55;101083.28;;;21.11;67.37
22333;BME280;11334;36.986;-121.936;2022-07-06T08:33:22;101079.78;;;21.11;67.22
22333;BME280;11334;36.986;-121.936;2022-07-06T08:35:48;101080.59;;;21.11;67.26
22333;BME280;11334;36.986;-121.936;2022-07-06T08:38:15;101070.63;;;21.12;67.63
22333;BME280;11334;36.986;-121.936;2022-07-06T08:40:43;101083.09;;;21.13;67.48
22333;BME280;11334;36.986;-121.936;2022-07-06T08:43:11;101070.44;;;21.13;67.57
22333;BME280;11334;36.986;-121.936;2022-07-06T08:45:40;101067.56;;;21.02;67.55
22333;BME280;11334;36.986;-121.936;2022-07-06T08:48:10;101063.69;;;20.98;67.77
22333;BME280;11334;36.986;-121.936;2022-07-06T08:50:36;101065.94;;;21.01;67.76
22333;BME280;11334;36.986;-121.936;2022-07-06T08:53:04;101064.50;;;20.98;67.83
22333;BME280;11334;36.986;-121.936;2022-07-06T08:55:30;101068.00;;;20.99;67.91
22333;BME280;11334;36.986;-121.936;2022-07-06T08:57:57;101066.97;;;21.00;67.91
22333;BME280;11334;36.986;-121.936;2022-07-06T09:00:26;101066.75;;;21.01;67.58
22333;BME280;11334;36.986;-121.936;2022-07-06T09:02:53;101068.84;;;20.99;67.85
22333;BME280;11334;36.986;-121.936;2022-07-06T09:05:23;101069.06;;;20.98;67.95
22333;BME280;11334;36.986;-121.936;2022-07-06T09:07:51;101066.38;;;20.98;68.24
22333;BME280;11334;36.986;-121.936;2022-07-06T09:10:18;101069.47;;;20.95;68.38
22333;BME280;11334;36.986;-121.936;2022-07-06T09:12:45;101073.59;;;20.97;68.17
22333;BME280;11334;36.986;-121.936;2022-07-06T09:15:11;101071.56;;;20.93;68.20
22333;BME280;11334;36.986;-121.936;2022-07-06T09:17:39;101075.09;;;20.93;68.26
22333;BME280;11334;36.986;-121.936;2022-07-06T09:20:11;101069.91;;;20.92;68.21
22333;BME280;11334;36.986;-121.936;2022-07-06T09:22:38;101071.16;;;20.90;68.12
22333;BME280;11334;36.986;-121.936;2022-07-06T09:25:09;101066.66;;;20.84;68.41
22333;BME280;11334;36.986;-121.936;2022-07-06T09:27:47;101060.44;;;20.83;68.52
22333;BME280;11334;36.986;-121.936;2022-07-06T09:30:16;101060.03;;;20.80;68.31
22333;BME280;11334;36.986;-121.936;2022-07-06T09:32:46;101058.38;;;20.79;68.28
22333;BME280;11334;36.986;-121.936;2022-07-06T09:35:31;101057.56;;;20.72;68.41
22333;BME280;11334;36.986;-121.936;2022-07-06T09:38:10;101055.94;;;20.71;68.45
22333;BME280;11334;36.986;-121.936;2022-07-06T09:40:41;101049.09;;;20.68;68.70
22333;BME280;11334;36.986;-121.936;2022-07-06T09:43:10;101048.88;;;20.70;68.67
22333;BME280;11334;36.986;-121.936;2022-07-06T09:45:38;101053.88;;;20.66;68.76
22333;BME280;11334;36.986;-121.936;2022-07-06T09:48:13;101062.13;;;20.71;68.60
22333;BME280;11334;36.986;-121.936;2022-07-06T09:50:45;101066.91;;;20.69;68.71
22333;BME280;11334;36.986;-121.936;2022-07-06T09:53:13;101067.53;;;20.65;68.88
22333;BME280;11334;36.986;-121.936;2022-07-06T09:55:57;101062.16;;;20.65;69.21
22333;BME280;11334;36.986;-121.936;2022-07-06T09:58:24;101066.53;;;20.59;69.21
22333;BME280;11334;36.986;-121.936;2022-07-06T10:00:50;101063.03;;;20.59;69.16
22333;BME280;11334;36.986;-121.936;2022-07-06T10:03:17;101061.56;;;20.57;69.37
22333;BME280;11334;36.986;-121.936;2022-07-06T10:05:45;101066.09;;;20.56;69.36
22333;BME280;11334;36.986;-121.936;2022-07-06T10:08:14;101061.78;;;20.61;69.33
22333;BME280;11334;36.986;-121.936;2022-07-06T10:10:41;101052.66;;;20.56;69.57
22333;BME280;11334;36.986;-121.936;2022-07-06T10:13:08;101052.22;;;20.53;69.94
22333;BME280;11334;36.986;-121.936;2022-07-06T10:15:37;101053.91;;;20.54;69.88
22333;BME280;11334;36.986;-121.936;2022-07-06T10:18:08;101062.56;;;20.56;70.01
22333;BME280;11334;36.986;-121.936;2022-07-06T10:20:37;101062.56;;;20.56;70.15
22333;BME280;11334;36.986;-121.936;2022-07-06T10:23:05;101059.28;;;20.54;70.17
22333;BME280;11334;36.986;-121.936;2022-07-06T10:25:33;101060.53;;;20.51;70.16
22333;BME280;11334;36.986;-121.936;2022-07-06T10:28:00;101054.09;;;20.52;70.40
22333;BME280;11334;36.986;-121.936;2022-07-06T10:30:28;101058.22;;;20.55;70.43
22333;BME280;11334;36.986;-121.936;2022-07-06T10:32:56;101054.28;;;20.51;70.14
22333;BME280;11334;36.986;-121.936;2022-07-06T10:35:24;101055.16;;;20.51;70.22
22333;BME280;11334;36.986;-121.936;2022-07-06T10:38:07;101054.53;;;20.49;70.47
22333;BME280;11334;36.986;-121.936;2022-07-06T10:40:39;101052.03;;;20.48;70.72
22333;BME280;11334;36.986;-121.936;2022-07-06T10:43:38;101052.03;;;20.48;70.80
22333;BME280;11334;36.986;-121.936;2022-07-06T10:46:08;101052.84;;;20.55;70.69
22333;BME280;11334;36.986;-121.936;2022-07-06T10:48:44;101044.38;;;20.58;70.38
22333;BME280;11334;36.986;-121.936;2022-07-06T10:51:12;101048.28;;;20.55;70.33
22333;BME280;11334;36.986;-121.936;2022-07-06T10:53:40;101050.97;;;20.55;70.32
22333;BME280;11334;36.986;-121.936;2022-07-06T10:56:08;101049.09;;;20.56;70.43
22333;BME280;11334;36.986;-121.936;2022-07-06T10:58:40;101045.41;;;20.57;70.52
22333;BME280;11334;36.986;-121.936;2022-07-06T11:01:08;101047.47;;;20.55;70.63
22333;BME280;11334;36.986;-121.936;2022-07-06T11:03:36;101043.94;;;20.54;70.42
22333;BME280;11334;36.986;-121.936;2022-07-06T11:06:14;101047.25;;;20.56;70.50
22333;BME280;11334;36.986;-121.936;2022-07-06T11:09:02;101039.19;;;20.56;70.31
22333;BME280;11334;36.986;-121.936;2022-07-06T11:14:15;101046.03;;;20.52;70.93
22333;BME280;11334;36.986;-121.936;2022-07-06T11:19:16;101055.53;;;20.55;71.30
22333;BME280;11334;36.986;-121.936;2022-07-06T11:22:14;101056.59;;;20.54;72.41
22333;BME280;11334;36.986;-121.936;2022-07-06T11:24:41;101053.91;;;20.54;72.28
22333;BME280;11334;36.986;-121.936;2022-07-06T11:27:08;101056.59;;;20.54;72.68
22333;BME280;11334;36.986;-121.936;2022-07-06T11:29:35;101059.88;;;20.56;72.47
22333;BME280;11334;36.986;-121.936;2022-07-06T11:32:06;101058.66;;;20.58;72.52
22333;BME280;11334;36.986;-121.936;2022-07-06T11:37:36;101065.25;;;20.56;72.68
22333;BME280;11334;36.986;-121.936;2022-07-06T11:40:07;101056.16;;;20.50;72.39
22333;BME280;11334;36.986;-121.936;2022-07-06T11:42:33;101058.47;;;20.47;72.49
22333;BME280;11334;36.986;-121.936;2022-07-06T11:45:01;101063.44;;;20.50;72.27
22333;BME280;11334;36.986;-121.936;2022-07-06T11:47:31;101053.91;;;20.47;72.28
22333;BME280;11334;36.986;-121.936;2022-07-06T11:49:58;101058.91;;;20.44;72.35
22333;BME280;11334;36.986;-121.936;2022-07-06T11:52:26;101064.28;;;20.44;72.42
22333;BME280;11334;36.986;-121.936;2022-07-06T11:54:57;101063.44;;;20.43;72.58
22333;BME280;11334;36.986;-121.936;2022-07-06T11:57:26;101070.31;;;20.39;72.46
22333;BME280;11334;36.986;-121.936;2022-07-06T11:59:56;101078.56;;;20.38;72.79
22333;BME280;11334;36.986;-121.936;2022-07-06T12:02:22;101068.44;;;20.40;72.63
22333;BME280;11334;36.986;-121.936;2022-07-06T12:04:48;101076.13;;;20.36;72.70
22333;BME280;11334;36.986;-121.936;2022-07-06T12:07:17;101073.63;;;20.35;72.82
22333;BME280;11334;36.986;-121.936;2022-07-06T12:09:45;101069.88;;;20.36;73.03
22333;BME280;11334;36.986;-121.936;2022-07-06T12:12:12;101066.38;;;20.35;72.78
22333;BME280;11334;36.986;-121.936;2022-07-06T12:14:40;101065.34;;;20.36;72.59
22333;BME280;11334;36.986;-121.936;2022-07-06T12:17:14;101068.03;;;20.36;72.45
22333;BME280;11334;36.986;-121.936;2022-07-06T12:19:41;101071.56;;;20.30;72.67
22333;BME280;11334;36.986;-121.936;2022-07-06T12:22:09;101073.44;;;20.30;72.80
22333;BME280;11334;36.986;-121.936;2022-07-06T12:24:36;101068.47;;;20.27;73.03
22333;BME280;11334;36.986;-121.936;2022-07-06T12:27:15;101073.22;;;20.25;72.91
22333;BME280;11334;36.986;-121.936;2022-07-06T12:29:41;101075.91;;;20.25;73.12
22333;BME280;11334;36.986;-121.936;2022-07-06T12:32:16;101075.50;;;20.28;72.79